createdAt,value
2022-11-27T00:00:41.284Z,59.17
2022-11-27T00:03:34.409Z,58.84
2022-11-27T00:06:09.086Z,58.82
2022-11-27T00:09:16.430Z,58.67
2022-11-27T00:11:45.901Z,58.86
2022-11-27T00:14:16.215Z,58.87
2022-11-27T00:16:46.118Z,58.88
2022-11-27T00:19:14.794Z,58.57
2022-11-27T00:21:44.153Z,58.48
2022-11-27T00:24:12.612Z,58.61
2022-11-27T00:26:41.836Z,58.73
2022-11-27T00:29:11.164Z,58.23
2022-11-27T00:31:43.200Z,58.21
2022-11-27T00:34:12.420Z,58.31
2022-11-27T00:36:46.540Z,58.51
2022-11-27T00:39:19.888Z,58.56
2022-11-27T00:41:49.816Z,58.55
2022-11-27T00:44:20.837Z,58.78
2022-11-27T00:46:51.647Z,58.63
2022-11-27T00:49:25.102Z,58.39
2022-11-27T00:51:55.115Z,58.44
2022-11-27T00:54:26.195Z,58.82
2022-11-27T00:56:58.456Z,58.71
2022-11-27T00:59:30.133Z,58.68
2022-11-27T01:02:01.912Z,58.63
2022-11-27T01:04:33.323Z,58.63
2022-11-27T01:07:04.108Z,58.43
2022-11-27T01:09:35.365Z,58.36
2022-11-27T01:12:07.547Z,58.28
2022-11-27T01:14:38.659Z,58.27
2022-11-27T01:17:13.684Z,57.89
2022-11-27T01:19:44.523Z,57.79
2022-11-27T01:22:15.735Z,57.70
2022-11-27T01:24:46.071Z,57.84
2022-11-27T01:27:17.294Z,57.74
2022-11-27T01:29:48.034Z,57.66
2022-11-27T01:32:18.505Z,57.47
2022-11-27T01:34:49.786Z,57.12
2022-11-27T01:37:20.504Z,57.04
2022-11-27T01:39:50.789Z,57.23
2022-11-27T01:42:21.500Z,57.27
2022-11-27T01:44:54.993Z,57.40
2022-11-27T01:47:34.419Z,57.38
2022-11-27T01:50:12.303Z,57.40
2022-11-27T01:52:44.809Z,57.45
2022-11-27T01:55:19.664Z,57.56
2022-11-27T01:57:49.967Z,57.59
2022-11-27T02:00:21.330Z,57.67
2022-11-27T02:02:50.791Z,57.86
2022-11-27T02:05:21.875Z,57.83
2022-11-27T02:07:52.140Z,57.87
2022-11-27T02:10:23.037Z,57.78
2022-11-27T02:12:56.589Z,57.71
2022-11-27T02:15:33.405Z,57.70
2022-11-27T02:18:10.551Z,57.77
2022-11-27T02:20:47.691Z,57.70
2022-11-27T02:23:35.408Z,57.83
2022-11-27T02:26:24.581Z,57.59
2022-11-27T02:29:04.956Z,57.26
2022-11-27T02:31:38.732Z,57.28
2022-11-27T02:34:16.848Z,57.41
2022-11-27T02:36:51.655Z,57.52
2022-11-27T02:39:25.693Z,57.44
2022-11-27T02:41:59.045Z,57.56
2022-11-27T02:44:32.247Z,57.83
2022-11-27T02:47:04.300Z,57.96
2022-11-27T02:49:34.003Z,58.05
2022-11-27T02:52:05.140Z,57.99
2022-11-27T02:54:35.177Z,57.84
2022-11-27T02:57:05.513Z,57.35
2022-11-27T02:59:36.163Z,57.35
2022-11-27T03:02:10.030Z,57.60
2022-11-27T03:04:43.442Z,57.61
2022-11-27T03:07:16.362Z,57.83
2022-11-27T03:09:47.916Z,57.97
2022-11-27T03:12:18.756Z,57.68
2022-11-27T03:14:49.079Z,57.59
2022-11-27T03:17:32.618Z,57.67
2022-11-27T03:20:06.239Z,57.67
2022-11-27T03:22:36.014Z,57.93
2022-11-27T03:25:06.182Z,58.14
2022-11-27T03:27:39.046Z,58.21
2022-11-27T03:30:11.321Z,58.29
2022-11-27T03:32:40.383Z,58.12
2022-11-27T03:35:12.259Z,57.97
2022-11-27T03:37:43.463Z,57.99
2022-11-27T03:40:14.510Z,58.05
2022-11-27T03:42:51.935Z,57.82
2022-11-27T03:45:29.825Z,57.82
2022-11-27T03:48:09.954Z,57.90
2022-11-27T03:50:51.064Z,58.02
2022-11-27T03:53:26.929Z,58.00
2022-11-27T03:55:59.871Z,57.74
2022-11-27T03:58:34.149Z,57.93
2022-11-27T04:01:05.435Z,58.31
2022-11-27T04:03:35.418Z,58.02
2022-11-27T04:06:07.355Z,57.80
2022-11-27T04:08:36.052Z,57.99
2022-11-27T04:11:05.425Z,58.33
2022-11-27T04:13:36.455Z,58.33
2022-11-27T04:16:06.957Z,58.55
2022-11-27T04:18:37.876Z,58.66
2022-11-27T04:21:10.107Z,58.71
2022-11-27T04:23:40.521Z,58.15
2022-11-27T04:26:09.296Z,58.01
2022-11-27T04:28:40.281Z,58.34
2022-11-27T04:31:10.892Z,58.65
2022-11-27T04:33:39.831Z,58.43
2022-11-27T04:36:11.296Z,58.51
2022-11-27T04:38:41.601Z,58.49
2022-11-27T04:41:10.792Z,58.07
2022-11-27T04:43:39.624Z,58.26
2022-11-27T04:46:08.963Z,58.29
2022-11-27T04:48:38.283Z,58.13
2022-11-27T04:51:07.381Z,58.05
2022-11-27T04:53:37.569Z,58.00
2022-11-27T04:56:07.918Z,58.03
2022-11-27T04:58:36.592Z,58.12
2022-11-27T05:01:06.914Z,57.97
2022-11-27T05:03:37.158Z,57.88
2022-11-27T05:06:08.912Z,57.78
2022-11-27T05:08:38.086Z,57.90
2022-11-27T05:11:12.388Z,57.88
2022-11-27T05:13:42.057Z,57.85
2022-11-27T05:16:10.980Z,57.88
2022-11-27T05:18:42.994Z,58.06
2022-11-27T05:21:12.111Z,58.16
2022-11-27T05:23:40.724Z,58.03
2022-11-27T05:26:09.124Z,57.88
2022-11-27T05:28:38.915Z,57.96
2022-11-27T05:31:08.407Z,58.14
2022-11-27T05:33:38.233Z,58.00
2022-11-27T05:36:09.059Z,57.96
2022-11-27T05:38:38.331Z,57.81
2022-11-27T05:41:08.413Z,57.92
2022-11-27T05:43:38.845Z,58.22
2022-11-27T05:46:09.207Z,58.05
2022-11-27T05:48:37.930Z,57.99
2022-11-27T05:51:08.875Z,58.02
2022-11-27T05:53:42.193Z,58.13
2022-11-27T05:56:12.806Z,57.88
2022-11-27T05:58:42.515Z,57.97
2022-11-27T06:01:12.326Z,57.82
2022-11-27T06:03:41.079Z,57.91
2022-11-27T06:06:17.004Z,57.66
2022-11-27T06:08:47.647Z,57.71
2022-11-27T06:11:19.478Z,57.95
2022-11-27T06:13:49.309Z,58.01
2022-11-27T06:16:19.879Z,58.29
2022-11-27T06:18:51.109Z,58.06
2022-11-27T06:21:21.505Z,58.07
2022-11-27T06:23:52.769Z,58.14
2022-11-27T06:26:23.260Z,58.04
2022-11-27T06:28:53.023Z,58.26
2022-11-27T06:31:23.295Z,58.40
2022-11-27T06:33:53.501Z,58.38
2022-11-27T06:36:26.520Z,58.05
2022-11-27T06:38:57.441Z,57.88
2022-11-27T06:41:27.954Z,57.90
2022-11-27T06:43:58.723Z,58.18
2022-11-27T06:46:28.049Z,58.15
2022-11-27T06:48:58.273Z,58.30
2022-11-27T06:51:30.139Z,58.50
2022-11-27T06:54:00.279Z,58.51
2022-11-27T06:56:32.646Z,58.07
2022-11-27T06:59:02.088Z,58.23
2022-11-27T07:01:33.663Z,58.50
2022-11-27T07:04:04.288Z,58.47
2022-11-27T07:06:33.153Z,58.52
2022-11-27T07:09:07.401Z,58.46
2022-11-27T07:11:38.933Z,58.32
2022-11-27T07:14:09.940Z,58.28
2022-11-27T07:16:38.515Z,58.39
2022-11-27T07:19:08.305Z,58.49
2022-11-27T07:21:39.414Z,58.44
2022-11-27T07:24:09.529Z,58.55
2022-11-27T07:26:38.023Z,58.55
2022-11-27T07:29:07.052Z,58.57
2022-11-27T07:31:37.590Z,58.48
2022-11-27T07:34:14.998Z,58.44
2022-11-27T07:36:48.030Z,58.38
2022-11-27T07:39:33.752Z,58.34
2022-11-27T07:42:37.102Z,58.18
2022-11-27T07:45:02.540Z,58.35
2022-11-27T07:47:33.716Z,58.40
2022-11-27T07:50:07.085Z,58.35
2022-11-27T07:52:42.412Z,58.37
2022-11-27T07:55:11.992Z,58.28
2022-11-27T07:57:42.758Z,58.29
2022-11-27T08:00:15.011Z,58.55
2022-11-27T08:02:43.829Z,58.63
2022-11-27T08:05:17.253Z,58.47
2022-11-27T08:07:46.253Z,58.35
2022-11-27T08:10:15.248Z,58.35
2022-11-27T08:12:43.700Z,58.36
2022-11-27T08:15:13.953Z,58.34
2022-11-27T08:17:44.584Z,58.31
2022-11-27T08:20:15.288Z,58.33
2022-11-27T08:22:46.209Z,58.45
2022-11-27T08:25:16.545Z,58.46
2022-11-27T08:27:47.723Z,58.17
2022-11-27T08:30:17.256Z,58.08
2022-11-27T08:32:45.653Z,58.12
2022-11-27T08:35:14.296Z,58.09
2022-11-27T08:37:46.875Z,58.16
2022-11-27T08:40:18.189Z,57.86
2022-11-27T08:42:47.271Z,57.88
2022-11-27T08:45:21.719Z,57.91
2022-11-27T08:47:53.199Z,57.75
2022-11-27T08:50:24.656Z,57.54
2022-11-27T08:52:56.052Z,57.58
2022-11-27T08:55:27.675Z,57.62
2022-11-27T08:57:58.212Z,57.69
2022-11-27T09:00:29.868Z,57.72
2022-11-27T09:03:04.600Z,57.69
2022-11-27T09:05:38.219Z,57.58
2022-11-27T09:08:09.514Z,57.36
2022-11-27T09:10:39.719Z,57.22
2022-11-27T09:13:11.456Z,57.71
2022-11-27T09:15:42.132Z,57.88
2022-11-27T09:18:13.202Z,57.76
2022-11-27T09:20:46.323Z,57.25
2022-11-27T09:23:16.124Z,57.35
2022-11-27T09:25:49.439Z,57.48
2022-11-27T09:28:21.915Z,57.16
2022-11-27T09:30:57.314Z,57.14
2022-11-27T09:33:28.321Z,57.25
2022-11-27T09:36:00.215Z,57.06
2022-11-27T09:38:31.461Z,57.02
2022-11-27T09:41:17.946Z,56.85
2022-11-27T09:43:53.122Z,56.70
2022-11-27T09:46:27.782Z,56.72
2022-11-27T09:48:58.420Z,56.37
2022-11-27T09:51:33.821Z,56.58
2022-11-27T09:54:11.022Z,56.33
2022-11-27T09:56:42.950Z,56.19
2022-11-27T09:59:18.073Z,56.08
2022-11-27T10:01:51.080Z,56.11
2022-11-27T10:04:26.170Z,55.86
2022-11-27T10:07:09.090Z,56.09
2022-11-27T10:09:48.373Z,56.04
2022-11-27T10:12:30.187Z,55.83
2022-11-27T10:15:06.336Z,55.73
2022-11-27T10:17:42.777Z,56.01
2022-11-27T10:20:18.381Z,56.04
2022-11-27T10:22:52.427Z,55.61
2022-11-27T10:25:25.288Z,55.39
2022-11-27T10:28:02.674Z,55.51
2022-11-27T10:30:34.269Z,55.68
2022-11-27T10:33:08.450Z,55.54
2022-11-27T10:35:38.018Z,55.33
2022-11-27T10:38:11.652Z,55.27
2022-11-27T10:40:45.352Z,55.31
2022-11-27T10:43:17.889Z,55.22
2022-11-27T10:45:50.146Z,55.21
2022-11-27T10:48:18.990Z,55.03
2022-11-27T10:50:49.626Z,54.85
2022-11-27T10:53:25.991Z,54.55
2022-11-27T10:56:01.627Z,54.50
2022-11-27T10:58:34.172Z,54.06
2022-11-27T11:01:04.787Z,54.08
2022-11-27T11:03:33.674Z,54.17
2022-11-27T11:06:20.016Z,54.13
2022-11-27T11:09:01.846Z,54.38
2022-11-27T11:11:32.238Z,54.02
2022-11-27T11:14:01.924Z,53.96
2022-11-27T11:16:35.611Z,54.01
2022-11-27T11:19:05.669Z,53.90
2022-11-27T11:21:37.971Z,53.71
2022-11-27T11:24:13.472Z,53.55
2022-11-27T11:26:46.903Z,53.58
2022-11-27T11:29:33.805Z,53.52
2022-11-27T11:32:08.313Z,53.67
2022-11-27T11:34:43.295Z,53.56
2022-11-27T11:37:22.708Z,53.65
2022-11-27T11:39:56.630Z,53.41
2022-11-27T11:42:27.721Z,53.34
2022-11-27T11:45:04.714Z,53.60
2022-11-27T11:47:33.799Z,53.52
2022-11-27T11:50:03.440Z,53.09
2022-11-27T11:52:41.307Z,52.84
2022-11-27T11:55:18.745Z,53.13
2022-11-27T11:58:01.706Z,53.05
2022-11-27T12:00:58.485Z,53.03
2022-11-27T12:03:39.740Z,53.23
2022-11-27T12:06:34.774Z,53.41
2022-11-27T12:09:12.776Z,52.98
2022-11-27T12:11:47.019Z,53.02
2022-11-27T12:14:27.588Z,53.02
2022-11-27T12:17:04.781Z,52.87
2022-11-27T12:19:51.563Z,52.15
2022-11-27T12:22:36.740Z,52.54
2022-11-27T12:25:17.784Z,52.50
2022-11-27T12:28:04.221Z,52.49
2022-11-27T12:30:40.643Z,51.92
2022-11-27T12:33:30.037Z,51.77
2022-11-27T12:36:08.388Z,51.65
2022-11-27T12:38:47.915Z,51.44
2022-11-27T12:41:41.938Z,51.34
2022-11-27T12:44:17.211Z,50.93
2022-11-27T12:46:51.392Z,50.63
2022-11-27T12:49:25.127Z,50.45
2022-11-27T12:51:57.639Z,50.34
2022-11-27T12:54:30.927Z,49.83
2022-11-27T12:57:03.063Z,49.82
2022-11-27T12:59:34.900Z,48.59
2022-11-27T13:02:17.296Z,48.28
2022-11-27T13:04:51.363Z,48.36
2022-11-27T13:07:26.455Z,48.35
2022-11-27T13:10:00.835Z,47.65
2022-11-27T13:12:35.292Z,47.13
2022-11-27T13:15:16.743Z,47.39
2022-11-27T13:17:46.631Z,47.95
2022-11-27T13:20:18.305Z,47.84
2022-11-27T13:22:51.466Z,48.10
2022-11-27T13:25:22.187Z,48.43
2022-11-27T13:27:51.421Z,48.53
2022-11-27T13:30:23.985Z,48.54
2022-11-27T13:32:57.186Z,48.40
2022-11-27T13:35:29.842Z,48.50
2022-11-27T13:38:05.516Z,48.55
2022-11-27T13:40:40.370Z,48.70
2022-11-27T13:43:21.183Z,48.67
2022-11-27T13:45:50.749Z,48.90
2022-11-27T13:48:33.759Z,49.07
2022-11-27T13:51:03.538Z,49.05
2022-11-27T13:53:37.274Z,49.14
2022-11-27T13:56:07.833Z,49.05
2022-11-27T13:58:39.220Z,49.05
2022-11-27T14:01:21.377Z,49.02
2022-11-27T14:03:52.392Z,48.99
2022-11-27T14:06:26.268Z,48.87
2022-11-27T14:08:58.433Z,49.01
2022-11-27T14:11:33.893Z,49.12
2022-11-27T14:14:11.765Z,49.15
2022-11-27T14:16:43.511Z,49.23
2022-11-27T14:19:33.627Z,49.40
2022-11-27T14:22:16.400Z,49.62
2022-11-27T14:24:55.612Z,49.56
2022-11-27T14:27:26.396Z,49.72
2022-11-27T14:29:55.727Z,49.79
2022-11-27T14:32:36.372Z,49.82
2022-11-27T14:35:06.478Z,49.81
2022-11-27T14:37:37.462Z,49.75
2022-11-27T14:40:19.040Z,49.88
2022-11-27T14:42:48.477Z,49.93
2022-11-27T14:45:20.053Z,50.19
2022-11-27T14:47:51.455Z,50.29
2022-11-27T14:50:22.217Z,50.23
2022-11-27T14:52:55.636Z,50.21
2022-11-27T14:55:24.553Z,50.16
2022-11-27T14:57:54.558Z,50.23
2022-11-27T15:00:26.779Z,50.57
2022-11-27T15:03:06.728Z,50.74
2022-11-27T15:05:38.286Z,50.91
2022-11-27T15:08:10.741Z,50.90
2022-11-27T15:10:41.750Z,50.88
2022-11-27T15:13:25.960Z,50.84
2022-11-27T15:16:02.528Z,51.11
2022-11-27T15:18:32.982Z,51.31
2022-11-27T15:21:09.801Z,51.11
2022-11-27T15:23:46.203Z,51.01
2022-11-27T15:26:33.464Z,51.17
2022-11-27T15:29:04.682Z,51.39
2022-11-27T15:31:36.948Z,51.47
2022-11-27T15:34:22.779Z,51.71
2022-11-27T15:36:57.043Z,51.88
2022-11-27T15:39:30.851Z,52.24
2022-11-27T15:42:04.508Z,52.35
2022-11-27T15:44:34.491Z,52.65
2022-11-27T15:47:05.116Z,52.83
2022-11-27T15:49:35.857Z,52.88
2022-11-27T15:52:06.241Z,53.01
2022-11-27T15:54:36.989Z,52.84
2022-11-27T15:57:07.869Z,52.80
2022-11-27T15:59:38.057Z,53.03
2022-11-27T16:02:13.203Z,52.90
2022-11-27T16:04:53.884Z,53.06
2022-11-27T16:07:26.882Z,53.13
2022-11-27T16:09:58.349Z,52.96
2022-11-27T16:12:29.410Z,53.25
2022-11-27T16:15:02.683Z,53.53
2022-11-27T16:17:36.411Z,53.49
2022-11-27T16:20:10.001Z,53.59
2022-11-27T16:22:40.581Z,53.53
2022-11-27T16:25:11.823Z,53.65
2022-11-27T16:27:43.366Z,53.55
2022-11-27T16:30:19.797Z,53.66
2022-11-27T16:32:54.367Z,53.65
2022-11-27T16:35:28.093Z,53.57
2022-11-27T16:37:59.941Z,53.21
2022-11-27T16:40:34.274Z,53.07
2022-11-27T16:43:05.645Z,53.21
2022-11-27T16:45:39.272Z,53.22
2022-11-27T16:48:08.711Z,53.16
2022-11-27T16:50:39.114Z,53.15
2022-11-27T16:53:09.412Z,53.23
2022-11-27T16:55:41.325Z,53.35
2022-11-27T16:58:11.877Z,53.55
2022-11-27T17:00:41.702Z,53.52
2022-11-27T17:03:12.767Z,53.58
2022-11-27T17:05:45.419Z,53.59
2022-11-27T17:08:19.459Z,53.61
2022-11-27T17:10:48.693Z,53.65
2022-11-27T17:13:19.315Z,53.68
2022-11-27T17:15:49.827Z,53.95
2022-11-27T17:18:19.278Z,53.94
2022-11-27T17:20:49.577Z,53.72
2022-11-27T17:23:20.361Z,53.75
2022-11-27T17:25:50.256Z,53.91
2022-11-27T17:28:19.138Z,54.07
2022-11-27T17:30:50.095Z,54.03
2022-11-27T17:33:21.114Z,53.97
2022-11-27T17:35:51.336Z,54.03
2022-11-27T17:38:21.428Z,54.04
2022-11-27T17:40:50.883Z,54.18
2022-11-27T17:43:23.120Z,54.33
2022-11-27T17:45:52.836Z,54.40
2022-11-27T17:48:24.428Z,54.55
2022-11-27T17:50:55.923Z,54.43
2022-11-27T17:53:24.824Z,54.38
2022-11-27T17:55:55.147Z,54.62
2022-11-27T17:58:23.724Z,54.48
2022-11-27T18:00:54.680Z,54.55
2022-11-27T18:03:29.419Z,54.65
2022-11-27T18:06:02.868Z,54.86
2022-11-27T18:08:34.150Z,54.95
2022-11-27T18:11:07.779Z,54.84
2022-11-27T18:13:37.717Z,54.83
2022-11-27T18:16:12.377Z,54.82
2022-11-27T18:18:43.330Z,54.90
2022-11-27T18:21:18.361Z,54.86
2022-11-27T18:27:06.417Z,55.00
2022-11-27T18:29:28.271Z,55.07
2022-11-27T18:31:59.258Z,54.94
2022-11-27T18:34:28.812Z,54.89
2022-11-27T18:36:59.805Z,54.88
2022-11-27T18:39:31.563Z,54.90
2022-11-27T18:42:04.513Z,54.94
2022-11-27T18:44:41.118Z,55.13
2022-11-27T18:47:14.283Z,55.41
2022-11-27T18:49:44.209Z,55.33
2022-11-27T18:52:13.998Z,55.31
2022-11-27T18:54:43.558Z,54.92
2022-11-27T18:57:13.494Z,55.05
2022-11-27T18:59:45.194Z,55.16
2022-11-27T19:02:14.410Z,55.18
2022-11-27T19:04:46.288Z,55.15
2022-11-27T19:07:15.738Z,55.17
2022-11-27T19:09:47.196Z,55.07
2022-11-27T19:12:17.332Z,55.09
2022-11-27T19:14:50.592Z,55.15
2022-11-27T19:17:22.563Z,55.13
2022-11-27T19:19:54.862Z,54.98
2022-11-27T19:22:25.212Z,55.00
2022-11-27T19:24:54.663Z,54.88
2022-11-27T19:27:24.947Z,54.96
2022-11-27T19:29:55.326Z,54.93
2022-11-27T19:32:26.036Z,54.89
2022-11-27T19:34:55.931Z,54.94
2022-11-27T19:37:34.536Z,54.91
2022-11-27T19:40:10.547Z,55.02
2022-11-27T19:42:39.290Z,54.97
2022-11-27T19:45:11.468Z,55.14
2022-11-27T19:47:41.045Z,54.98
2022-11-27T19:50:12.929Z,55.01
2022-11-27T19:52:42.705Z,55.16
2022-11-27T19:55:12.164Z,55.18
2022-11-27T19:57:43.363Z,55.11
2022-11-27T20:00:14.537Z,55.12
2022-11-27T20:02:46.724Z,55.19
2022-11-27T20:05:15.733Z,55.17
2022-11-27T20:07:49.713Z,55.17
2022-11-27T20:10:18.586Z,55.07
2022-11-27T20:12:47.838Z,55.21
2022-11-27T20:15:18.341Z,55.31
2022-11-27T20:17:47.842Z,55.27
2022-11-27T20:20:17.972Z,55.34
2022-11-27T20:22:47.728Z,55.27
2022-11-27T20:25:19.996Z,55.41
2022-11-27T20:27:52.710Z,55.40
2022-11-27T20:30:22.281Z,55.44
2022-11-27T20:32:53.942Z,55.45
2022-11-27T20:35:25.021Z,55.45
2022-11-27T20:37:55.792Z,55.46
2022-11-27T20:40:27.530Z,55.62
2022-11-27T20:42:58.941Z,55.70
2022-11-27T20:45:28.143Z,55.98
2022-11-27T20:47:57.490Z,56.00
2022-11-27T20:50:26.845Z,55.97
2022-11-27T20:52:55.994Z,56.07
2022-11-27T20:55:25.999Z,56.09
2022-11-27T20:57:55.549Z,56.05
2022-11-27T21:00:27.460Z,56.21
2022-11-27T21:02:56.818Z,56.04
2022-11-27T21:05:26.625Z,56.12
2022-11-27T21:07:57.261Z,56.21
2022-11-27T21:10:28.760Z,56.14
2022-11-27T21:13:00.404Z,55.90
2022-11-27T21:15:29.744Z,56.21
2022-11-27T21:17:59.543Z,56.17
2022-11-27T21:20:33.146Z,56.24
2022-11-27T21:23:04.946Z,56.20
2022-11-27T21:25:34.151Z,56.15
2022-11-27T21:28:03.502Z,56.09
2022-11-27T21:30:35.002Z,56.27
2022-11-27T21:33:06.833Z,56.16
2022-11-27T21:35:40.261Z,56.01
2022-11-27T21:38:09.233Z,56.20
2022-11-27T21:40:40.127Z,56.23
2022-11-27T21:43:10.590Z,56.22
2022-11-27T21:45:43.691Z,56.22
2022-11-27T21:48:14.513Z,56.22
2022-11-27T21:50:44.286Z,56.27
2022-11-27T21:53:13.141Z,56.31
2022-11-27T21:55:42.631Z,56.32
2022-11-27T21:58:12.492Z,56.32
2022-11-27T22:00:41.525Z,56.36
2022-11-27T22:03:11.946Z,56.24
2022-11-27T22:05:41.713Z,56.32
2022-11-27T22:08:13.621Z,56.40
2022-11-27T22:10:42.197Z,56.49
2022-11-27T22:13:13.128Z,56.55
2022-11-27T22:15:43.126Z,56.69
2022-11-27T22:18:11.781Z,56.68
2022-11-27T22:20:42.464Z,56.63
2022-11-27T22:23:15.563Z,56.77
2022-11-27T22:25:47.037Z,56.93
2022-11-27T22:28:16.380Z,56.83
2022-11-27T22:30:45.201Z,56.80
2022-11-27T22:33:13.845Z,56.98
2022-11-27T22:35:44.814Z,57.03
2022-11-27T22:38:13.591Z,57.01
2022-11-27T22:40:44.012Z,57.24
2022-11-27T22:43:15.000Z,57.35
2022-11-27T22:45:47.619Z,57.45
2022-11-27T22:48:16.231Z,57.37
2022-11-27T22:50:45.156Z,57.42
2022-11-27T22:53:14.908Z,57.47
2022-11-27T22:55:44.418Z,57.59
2022-11-27T22:58:14.120Z,57.51
2022-11-27T23:00:45.196Z,57.43
2022-11-27T23:03:13.777Z,57.50
2022-11-27T23:05:45.764Z,57.42
2022-11-27T23:08:20.906Z,57.57
2022-11-27T23:10:50.777Z,57.57
2022-11-27T23:13:20.129Z,57.27
2022-11-27T23:15:50.263Z,57.49
2022-11-27T23:18:20.480Z,57.50
2022-11-27T23:20:49.006Z,57.48
2022-11-27T23:23:17.626Z,57.30
2022-11-27T23:25:46.226Z,57.37
2022-11-27T23:28:16.915Z,57.40
2022-11-27T23:31:03.121Z,57.24
2022-11-27T23:33:38.905Z,57.27
2022-11-27T23:36:10.267Z,57.34
2022-11-27T23:38:42.903Z,57.21
2022-11-27T23:41:18.624Z,57.25
2022-11-27T23:43:48.402Z,57.42
2022-11-27T23:46:18.587Z,57.49
2022-11-27T23:48:53.877Z,57.56
2022-11-27T23:51:27.882Z,57.70
2022-11-27T23:53:57.984Z,57.76
2022-11-27T23:56:28.593Z,57.67
2022-11-27T23:58:59.121Z,57.61
